Airfield :
LOGIN :

Register | Disclaimer

   EN    FR    IT 

 










Legend :    VFR   Marginal VFR   IFR   Intensive IFR   Very Intensive IFR
Visi :
Ceiling :
>= 8 km
>= 3000ft
5 to 8 km
1000 to 3000 ft
1500m to 5 km
500 to 1000 ft
800 to 1500m
200 to 500 ft
< 800m
< 200 ft
Symbols :   Thunderstorms  Fog  Heavy snow  Heavy precipitations  Wind > 20 kt
SIGMETs :     Misc.  Thunderstorms  Icing  Turbulence  Mountain Waves  Volcanic Ashes






- Airport Elevation : 479 ft
- IATA code : DOL


LFRG - Deauville

CURRENT METAR :
  • 070930Z AUTO 21006KT 180V240 CAVOK 15/10 Q1025 NOSIG

EXPIRED METARs :
  • 070900Z AUTO 21007KT CAVOK 14/09 Q1025 NOSIG
  • 070830Z AUTO 22004KT CAVOK 13/09 Q1025 NOSIG
  • 070800Z AUTO 18008KT CAVOK 12/09 Q1025 NOSIG
  • 070730Z AUTO 19006KT CAVOK 11/09 Q1025 NOSIG
  • 070700Z AUTO 19006KT CAVOK 09/08 Q1025 TEMPO 3000 BR

TAF TAF LFRG
Valid from the 07 at 09:00 until the 07 at 18:00 UTC


070800Z 0709/0718 19008KT CAVOK
BECMG 0711/0713 25010KT
ATIS : +33 2 31 65 65 36



MET'MAP, your aeronautical weather chart ! - Copyright ORBIFLY December 2007 - Disclaimer

ORBIFLY MET'MAP TEAM :

Programming & Development : Alexandra Zaïnal
Original concept : Baudouin d'Aumeries
Technical & hardware support : Manuel Goepfert
Assistance : Marc-Olivier Méhu




SOURCES & CREDITS :

   NOAA